Decoded Metar for CYPH (INUKJUAK in QC, CANADA) (IATA:YPH) | Meteo·Mobile Aviation Weather
aviador You're here:

CYPH Decoded Metar

INUKJUAK in QC, CANADA
Report Time2020-02-25 21:00:00
UTC Time2020-02-25 22:02:10
Flight Rules vfr VFR
Wind340° at 08 kt
W.Decomp.*RWY 07: 2.6 kt HW 7.6 kt LCW
Visibility9999 m
Phenomena:N/A
Clouds:Few 006 Hf
Expected CloudBase > 1,200 ft AGL from Temp-Dew spread
CeilingNone
Temp-27°C (ISA -42)
Dew Point-30°C (76% RH)
AAT-33.7°C
QNH1029 hPa
Density Alt-6,010 ft
Elevation10 ft
Report Wrong Elevation
Raw Report
CYPH 252100Z AUTO 34008KT 9SM FEW006 M27/M30 A3038 RMK SLP295=

Extra information for CYPH:More info

Metar Taf Metar & Taf Last 4 Metars F.Rules Stats Wind Profile Meteogram Temp Stats Airport Information Weather charts Add Link Nearby VenuesMetar ALERT Operation Metar Decoded Social comments